createdAt,value
2018-08-30T00:00:31.227Z,1010.65
2018-08-30T00:01:31.191Z,1010.67
2018-08-30T00:02:31.156Z,1010.69
2018-08-30T00:03:31.118Z,1010.70
2018-08-30T00:04:31.096Z,1010.72
2018-08-30T00:05:31.038Z,1010.74
2018-08-30T00:06:30.997Z,1010.82
2018-08-30T00:07:30.957Z,1010.78
2018-08-30T00:08:30.927Z,1010.80
2018-08-30T00:09:30.915Z,1010.82
2018-08-30T00:10:30.848Z,1010.82
2018-08-30T00:11:30.810Z,1010.95
2018-08-30T00:12:30.765Z,1010.94
2018-08-30T00:13:30.726Z,1010.93
2018-08-30T00:14:30.686Z,1010.93
2018-08-30T00:15:30.671Z,1010.96
2018-08-30T00:16:30.629Z,1010.95
2018-08-30T00:17:30.579Z,1010.96
2018-08-30T00:18:30.530Z,1011.01
2018-08-30T00:19:30.497Z,1011.00
2018-08-30T00:20:30.484Z,1011.02
2018-08-30T00:21:30.425Z,1011.00
2018-08-30T00:22:30.381Z,1011.03
2018-08-30T00:23:30.345Z,1011.05
2018-08-30T00:24:30.301Z,1011.08
2018-08-30T00:25:30.290Z,1011.08
2018-08-30T00:26:30.221Z,1011.09
2018-08-30T00:27:30.184Z,1011.13
2018-08-30T00:28:30.153Z,1011.11
2018-08-30T00:29:30.117Z,1011.16
2018-08-30T00:30:30.078Z,1011.16
2018-08-30T00:31:30.056Z,1011.22
2018-08-30T00:32:29.990Z,1011.20
2018-08-30T00:33:29.951Z,1011.21
2018-08-30T00:34:29.919Z,1011.27
2018-08-30T00:35:29.880Z,1011.25
2018-08-30T00:36:29.857Z,1011.28
2018-08-30T00:37:29.795Z,1011.31
2018-08-30T00:38:29.757Z,1011.28
2018-08-30T00:39:29.716Z,1011.34
2018-08-30T00:40:29.688Z,1011.34
2018-08-30T00:41:29.730Z,1011.32
2018-08-30T00:42:29.610Z,1011.35
2018-08-30T00:43:29.571Z,1011.36
2018-08-30T00:44:29.529Z,1011.31
2018-08-30T00:45:29.483Z,1011.33
2018-08-30T00:46:29.471Z,1011.38
2018-08-30T00:47:29.406Z,1011.32
2018-08-30T00:48:29.376Z,1011.37
2018-08-30T00:49:29.335Z,1011.37
2018-08-30T00:50:29.290Z,1011.40
2018-08-30T00:51:29.252Z,1011.42
2018-08-30T00:52:29.242Z,1011.45
2018-08-30T00:53:29.181Z,1011.44
2018-08-30T00:54:29.152Z,1011.41
2018-08-30T00:55:29.103Z,1011.48
2018-08-30T00:56:29.059Z,1011.48
2018-08-30T00:57:29.044Z,1011.54
2018-08-30T00:58:28.985Z,1011.51
2018-08-30T00:59:28.942Z,1011.54
2018-08-30T01:00:28.914Z,1011.59
2018-08-30T01:01:28.872Z,1011.57
2018-08-30T01:02:28.832Z,1011.62
2018-08-30T01:03:28.815Z,1011.57
2018-08-30T01:04:28.747Z,1011.60
2018-08-30T01:05:28.711Z,1011.60
2018-08-30T01:06:28.677Z,1011.61
2018-08-30T01:07:28.637Z,1011.58
2018-08-30T01:08:28.615Z,1011.62
2018-08-30T01:09:38.950Z,1011.62
2018-08-30T01:10:28.525Z,1011.60
2018-08-30T01:11:28.483Z,1011.65
2018-08-30T01:12:28.443Z,1011.61
2018-08-30T01:13:28.428Z,1011.64
2018-08-30T01:14:28.361Z,1011.64
2018-08-30T01:15:28.320Z,1011.67
2018-08-30T01:16:28.281Z,1011.65
2018-08-30T01:17:28.246Z,1011.70
2018-08-30T01:18:28.231Z,1011.66
2018-08-30T01:19:28.172Z,1011.72
2018-08-30T01:20:28.130Z,1011.71
2018-08-30T01:21:28.090Z,1011.74
2018-08-30T01:22:28.055Z,1011.72
2018-08-30T01:23:28.042Z,1011.73
2018-08-30T01:24:27.979Z,1011.76
2018-08-30T01:25:27.941Z,1011.73
2018-08-30T01:26:27.895Z,1011.75
2018-08-30T01:27:27.856Z,1011.80
2018-08-30T01:28:27.847Z,1011.81
2018-08-30T01:29:38.992Z,1011.80
2018-08-30T01:30:27.747Z,1011.82
2018-08-30T01:31:27.710Z,1011.82
2018-08-30T01:32:27.665Z,1011.84
2018-08-30T01:33:27.623Z,1011.84
2018-08-30T01:34:27.616Z,1011.85
2018-08-30T01:35:27.552Z,1011.83
2018-08-30T01:36:27.509Z,1011.87
2018-08-30T01:37:27.470Z,1011.86
2018-08-30T01:38:27.437Z,1011.92
2018-08-30T01:39:27.413Z,1011.90
2018-08-30T01:40:27.359Z,1011.90
2018-08-30T01:41:27.319Z,1011.90
2018-08-30T01:42:27.281Z,1011.92
2018-08-30T01:43:27.245Z,1011.93
2018-08-30T01:44:27.219Z,1011.90
2018-08-30T01:45:27.159Z,1011.90
2018-08-30T01:46:27.122Z,1011.92
2018-08-30T01:47:27.084Z,1011.91
2018-08-30T01:48:37.047Z,1011.92
2018-08-30T01:49:27.005Z,1011.90
2018-08-30T01:50:26.974Z,1011.91
2018-08-30T01:51:26.939Z,1011.85
2018-08-30T01:52:26.894Z,1011.88
2018-08-30T01:53:26.857Z,1011.91
2018-08-30T01:54:26.834Z,1011.92
2018-08-30T01:55:26.773Z,1011.96
2018-08-30T01:56:26.737Z,1011.96
2018-08-30T01:57:26.699Z,1011.96
2018-08-30T01:58:26.661Z,1011.98
2018-08-30T01:59:26.645Z,1011.92
2018-08-30T02:00:26.586Z,1011.93
2018-08-30T02:01:26.549Z,1011.95
2018-08-30T02:02:26.502Z,1011.95
2018-08-30T02:03:26.463Z,1011.97
2018-08-30T02:04:26.456Z,1011.98
2018-08-30T02:05:26.395Z,1011.99
2018-08-30T02:06:26.348Z,1012.00
2018-08-30T02:07:36.577Z,1012.03
2018-08-30T02:08:26.278Z,1012.04
2018-08-30T02:09:26.264Z,1012.07
2018-08-30T02:10:26.199Z,1012.07
2018-08-30T02:11:26.163Z,1012.08
2018-08-30T02:12:26.116Z,1012.10
2018-08-30T02:13:26.078Z,1012.13
2018-08-30T02:14:26.041Z,1012.14
2018-08-30T02:15:26.024Z,1012.09
2018-08-30T02:16:25.977Z,1012.11
2018-08-30T02:17:25.932Z,1012.08
2018-08-30T02:18:25.884Z,1012.10
2018-08-30T02:19:25.846Z,1012.08
2018-08-30T02:20:25.847Z,1012.13
2018-08-30T02:21:25.777Z,1012.08
2018-08-30T02:22:25.734Z,1012.05
2018-08-30T02:23:25.700Z,1012.07
2018-08-30T02:24:25.654Z,1012.06
2018-08-30T02:25:25.638Z,1012.06
2018-08-30T02:26:25.579Z,1012.03
2018-08-30T02:27:35.623Z,1012.06
2018-08-30T02:28:25.509Z,1012.08
2018-08-30T02:29:25.468Z,1012.05
2018-08-30T02:30:25.455Z,1012.09
2018-08-30T02:31:25.382Z,1012.07
2018-08-30T02:32:25.350Z,1012.04
2018-08-30T02:33:25.317Z,1012.07
2018-08-30T02:34:25.266Z,1012.10
2018-08-30T02:35:25.228Z,1012.07
2018-08-30T02:36:25.215Z,1012.05
2018-08-30T02:37:25.153Z,1012.04
2018-08-30T02:38:25.120Z,1012.06
2018-08-30T02:39:25.082Z,1012.06
2018-08-30T02:40:25.043Z,1012.05
2018-08-30T02:41:25.030Z,1012.06
2018-08-30T02:42:24.960Z,1012.06
2018-08-30T02:43:24.921Z,1012.09
2018-08-30T02:44:24.883Z,1012.11
2018-08-30T02:45:24.843Z,1012.13
2018-08-30T02:46:24.838Z,1012.15
2018-08-30T02:47:24.774Z,1012.16
2018-08-30T02:48:24.727Z,1012.18
2018-08-30T02:49:24.690Z,1012.18
2018-08-30T02:50:24.657Z,1012.23
2018-08-30T02:51:24.620Z,1012.17
2018-08-30T02:52:24.605Z,1012.21
2018-08-30T02:53:24.545Z,1012.26
2018-08-30T02:54:24.498Z,1012.23
2018-08-30T02:55:24.457Z,1012.28
2018-08-30T02:56:24.419Z,1012.24
2018-08-30T02:57:24.404Z,1012.21
2018-08-30T02:58:24.351Z,1012.25
2018-08-30T02:59:24.310Z,1012.22
2018-08-30T03:00:24.276Z,1012.25
2018-08-30T03:01:24.231Z,1012.26
2018-08-30T03:02:24.212Z,1012.29
2018-08-30T03:03:24.148Z,1012.30
2018-08-30T03:04:24.122Z,1012.31
2018-08-30T03:05:24.081Z,1012.36
2018-08-30T03:06:24.040Z,1012.39
2018-08-30T03:07:33.682Z,1012.41
2018-08-30T03:08:23.964Z,1012.38
2018-08-30T03:09:23.927Z,1012.42
2018-08-30T03:10:23.891Z,1012.40
2018-08-30T03:11:23.847Z,1012.42
2018-08-30T03:12:23.803Z,1012.41
2018-08-30T03:13:23.787Z,1012.45
2018-08-30T03:14:23.725Z,1012.44
2018-08-30T03:15:23.689Z,1012.47
2018-08-30T03:16:23.657Z,1012.49
2018-08-30T03:17:23.638Z,1012.50
2018-08-30T03:18:23.572Z,1012.52
2018-08-30T03:19:23.532Z,1012.52
2018-08-30T03:20:23.499Z,1012.49
2018-08-30T03:21:23.462Z,1012.52
2018-08-30T03:22:23.444Z,1012.55
2018-08-30T03:23:23.384Z,1012.54
2018-08-30T03:24:23.340Z,1012.54
2018-08-30T03:25:23.300Z,1012.56
2018-08-30T03:26:33.704Z,1012.55
2018-08-30T03:27:23.259Z,1012.53
2018-08-30T03:28:23.193Z,1012.57
2018-08-30T03:29:23.156Z,1012.56
2018-08-30T03:30:23.144Z,1012.57
2018-08-30T03:31:23.068Z,1012.58
2018-08-30T03:32:23.043Z,1012.59
2018-08-30T03:33:23.023Z,1012.57
2018-08-30T03:34:22.955Z,1012.64
2018-08-30T03:35:22.918Z,1012.61
2018-08-30T03:36:22.877Z,1012.61
2018-08-30T03:37:22.837Z,1012.61
2018-08-30T03:38:22.827Z,1012.59
2018-08-30T03:39:22.769Z,1012.63
2018-08-30T03:40:22.730Z,1012.59
2018-08-30T03:41:22.690Z,1012.61
2018-08-30T03:42:22.645Z,1012.64
2018-08-30T03:43:22.630Z,1012.60
2018-08-30T03:44:22.568Z,1012.63
2018-08-30T03:45:22.528Z,1012.58
2018-08-30T03:46:32.742Z,1012.62
2018-08-30T03:47:22.451Z,1012.63
2018-08-30T03:48:22.448Z,1012.63
2018-08-30T03:49:22.385Z,1012.59
2018-08-30T03:50:22.343Z,1012.62
2018-08-30T03:51:22.307Z,1012.58
2018-08-30T03:52:22.261Z,1012.59
2018-08-30T03:53:22.222Z,1012.60
2018-08-30T03:54:22.205Z,1012.56
2018-08-30T03:55:22.147Z,1012.54
2018-08-30T03:56:22.117Z,1012.57
2018-08-30T03:57:22.074Z,1012.61
2018-08-30T03:58:22.036Z,1012.61
2018-08-30T03:59:22.023Z,1012.63
2018-08-30T04:00:21.954Z,1012.62
2018-08-30T04:01:21.915Z,1012.65
2018-08-30T04:02:21.882Z,1012.70
2018-08-30T04:03:21.844Z,1012.71
2018-08-30T04:04:21.815Z,1012.70
2018-08-30T04:05:32.303Z,1012.76
2018-08-30T04:06:21.726Z,1012.75
2018-08-30T04:07:21.691Z,1012.79
2018-08-30T04:08:21.654Z,1012.78
2018-08-30T04:09:21.612Z,1012.83
2018-08-30T04:10:21.590Z,1012.87
2018-08-30T04:11:21.531Z,1012.84
2018-08-30T04:12:21.492Z,1012.87
2018-08-30T04:13:21.489Z,1012.84
2018-08-30T04:14:21.422Z,1012.82
2018-08-30T04:15:21.408Z,1012.88
2018-08-30T04:16:21.339Z,1012.90
2018-08-30T04:17:21.299Z,1012.87
2018-08-30T04:18:21.266Z,1012.85
2018-08-30T04:19:21.230Z,1012.88
2018-08-30T04:20:21.190Z,1012.86
2018-08-30T04:21:21.174Z,1012.88
2018-08-30T04:22:21.107Z,1012.90
2018-08-30T04:23:21.069Z,1012.93
2018-08-30T04:24:21.031Z,1012.95
2018-08-30T04:25:32.332Z,1012.94
2018-08-30T04:26:20.980Z,1013.01
2018-08-30T04:27:20.920Z,1012.98
2018-08-30T04:28:20.875Z,1012.98
2018-08-30T04:29:20.843Z,1012.96
2018-08-30T04:30:20.813Z,1012.98
2018-08-30T04:31:20.812Z,1013.01
2018-08-30T04:32:20.720Z,1013.02
2018-08-30T04:33:20.708Z,1012.97
2018-08-30T04:34:20.643Z,1013.02
2018-08-30T04:35:20.605Z,1013.05
2018-08-30T04:36:20.599Z,1013.01
2018-08-30T04:37:20.538Z,1013.01
2018-08-30T04:38:20.496Z,1013.02
2018-08-30T04:39:20.460Z,1013.05
2018-08-30T04:40:20.415Z,1013.03
2018-08-30T04:41:20.376Z,1013.04
2018-08-30T04:42:20.393Z,1013.05
2018-08-30T04:43:20.298Z,1013.06
2018-08-30T04:44:20.264Z,1013.08
2018-08-30T04:45:30.369Z,1013.07
2018-08-30T04:46:20.189Z,1013.04
2018-08-30T04:47:20.175Z,1013.07
2018-08-30T04:48:20.116Z,1013.06
2018-08-30T04:49:20.074Z,1013.07
2018-08-30T04:50:20.082Z,1013.06
2018-08-30T04:51:19.989Z,1013.07
2018-08-30T04:52:19.984Z,1013.13
2018-08-30T04:53:19.916Z,1013.10
2018-08-30T04:54:19.889Z,1013.12
2018-08-30T04:55:19.843Z,1013.10
2018-08-30T04:56:19.804Z,1013.16
2018-08-30T04:57:19.769Z,1013.15
2018-08-30T04:58:19.745Z,1013.20
2018-08-30T04:59:19.684Z,1013.22
2018-08-30T05:00:19.652Z,1013.20
2018-08-30T05:01:19.615Z,1013.23
2018-08-30T05:02:19.569Z,1013.23
2018-08-30T05:03:19.550Z,1013.25
2018-08-30T05:04:19.490Z,1013.24
2018-08-30T05:05:29.915Z,1013.23
2018-08-30T05:06:19.422Z,1013.22
2018-08-30T05:07:19.382Z,1013.24
2018-08-30T05:08:19.358Z,1013.25
2018-08-30T05:09:19.299Z,1013.30
2018-08-30T05:10:19.253Z,1013.28
2018-08-30T05:11:19.224Z,1013.27
2018-08-30T05:12:19.197Z,1013.30
2018-08-30T05:13:19.177Z,1013.34
2018-08-30T05:14:19.106Z,1013.36
2018-08-30T05:15:19.070Z,1013.41
2018-08-30T05:16:19.038Z,1013.41
2018-08-30T05:17:18.996Z,1013.41
2018-08-30T05:18:18.985Z,1013.42
2018-08-30T05:19:18.931Z,1013.44
2018-08-30T05:20:18.874Z,1013.43
2018-08-30T05:21:18.839Z,1013.41
2018-08-30T05:22:18.800Z,1013.45
2018-08-30T05:23:18.760Z,1013.45
2018-08-30T05:24:18.752Z,1013.45
2018-08-30T05:25:28.945Z,1013.45
2018-08-30T05:26:28.997Z,1013.46
2018-08-30T05:27:18.616Z,1013.43
2018-08-30T05:28:18.566Z,1013.46
2018-08-30T05:29:18.554Z,1013.47
2018-08-30T05:30:18.494Z,1013.46
2018-08-30T05:31:18.452Z,1013.43
2018-08-30T05:32:18.419Z,1013.48
2018-08-30T05:33:18.384Z,1013.51
2018-08-30T05:34:18.367Z,1013.53
2018-08-30T05:35:18.303Z,1013.54
2018-08-30T05:36:18.263Z,1013.56
2018-08-30T05:37:18.224Z,1013.57
2018-08-30T05:38:18.184Z,1013.54
2018-08-30T05:39:18.177Z,1013.55
2018-08-30T05:40:18.116Z,1013.55
2018-08-30T05:41:18.077Z,1013.60
2018-08-30T05:42:18.032Z,1013.61
2018-08-30T05:43:17.993Z,1013.61
2018-08-30T05:44:17.960Z,1013.62
2018-08-30T05:45:17.948Z,1013.62
2018-08-30T05:46:28.013Z,1013.63
2018-08-30T05:47:17.839Z,1013.64
2018-08-30T05:48:17.803Z,1013.62
2018-08-30T05:49:17.766Z,1013.61
2018-08-30T05:50:17.759Z,1013.65
2018-08-30T05:51:17.698Z,1013.64
2018-08-30T05:52:17.657Z,1013.66
2018-08-30T05:53:17.618Z,1013.67
2018-08-30T05:54:17.573Z,1013.70
2018-08-30T05:55:17.535Z,1013.68
2018-08-30T05:56:17.525Z,1013.67
2018-08-30T05:57:17.467Z,1013.67
2018-08-30T05:58:17.422Z,1013.69
2018-08-30T05:59:17.382Z,1013.69
2018-08-30T06:00:17.369Z,1013.70
2018-08-30T06:01:17.305Z,1013.73
2018-08-30T06:02:17.275Z,1013.73
2018-08-30T06:03:17.238Z,1013.74
2018-08-30T06:04:17.199Z,1013.76
2018-08-30T06:05:17.192Z,1013.79
2018-08-30T06:06:17.118Z,1013.77
2018-08-30T06:07:17.132Z,1013.79
2018-08-30T06:08:17.073Z,1013.78
2018-08-30T06:09:17.000Z,1013.79
2018-08-30T06:10:16.969Z,1013.81
2018-08-30T06:11:17.072Z,1013.84
2018-08-30T06:12:16.890Z,1013.89
2018-08-30T06:13:16.852Z,1013.86
2018-08-30T06:14:16.822Z,1013.87
2018-08-30T06:15:16.782Z,1013.86
2018-08-30T06:16:16.771Z,1013.87
2018-08-30T06:17:16.701Z,1013.91
2018-08-30T06:18:16.662Z,1013.88
2018-08-30T06:19:16.623Z,1013.93
2018-08-30T06:20:16.585Z,1013.94
2018-08-30T06:21:16.568Z,1013.96
2018-08-30T06:22:16.513Z,1013.95
2018-08-30T06:23:16.478Z,1014.01
2018-08-30T06:24:16.440Z,1013.98
2018-08-30T06:25:16.445Z,1014.03
2018-08-30T06:26:25.087Z,1014.02
2018-08-30T06:27:16.329Z,1014.07
2018-08-30T06:28:16.280Z,1014.07
2018-08-30T06:29:16.302Z,1014.09
2018-08-30T06:30:16.204Z,1014.05
2018-08-30T06:31:16.167Z,1014.11
2018-08-30T06:32:16.161Z,1014.09
2018-08-30T06:33:16.097Z,1014.10
2018-08-30T06:34:16.060Z,1014.13
2018-08-30T06:35:16.025Z,1014.15
2018-08-30T06:36:15.978Z,1014.17
2018-08-30T06:37:25.636Z,1014.16
2018-08-30T06:38:15.907Z,1014.21
2018-08-30T06:39:15.871Z,1014.20
2018-08-30T06:40:15.826Z,1014.21
2018-08-30T06:41:15.791Z,1014.19
2018-08-30T06:42:15.787Z,1014.21
2018-08-30T06:43:15.721Z,1014.26
2018-08-30T06:44:15.683Z,1014.34
2018-08-30T06:45:26.184Z,1014.32
2018-08-30T06:46:15.601Z,1014.32
2018-08-30T06:47:15.569Z,1014.35
2018-08-30T06:48:15.555Z,1014.34
2018-08-30T06:49:15.495Z,1014.36
2018-08-30T06:50:15.457Z,1014.36
2018-08-30T06:51:15.421Z,1014.36
2018-08-30T06:52:15.376Z,1014.43
2018-08-30T06:53:15.365Z,1014.45
2018-08-30T06:54:15.313Z,1014.48
2018-08-30T06:55:15.273Z,1014.45
2018-08-30T06:56:15.237Z,1014.45
2018-08-30T06:57:15.195Z,1014.44
2018-08-30T06:58:15.186Z,1014.53
2018-08-30T06:59:15.114Z,1014.45
2018-08-30T07:00:15.084Z,1014.44
2018-08-30T07:01:15.053Z,1014.44
2018-08-30T07:02:15.019Z,1014.39
2018-08-30T07:03:14.980Z,1014.45
2018-08-30T07:04:15.017Z,1014.42
2018-08-30T07:05:25.181Z,1014.40
2018-08-30T07:06:25.213Z,1014.43
2018-08-30T07:07:14.820Z,1014.45
2018-08-30T07:08:14.868Z,1014.47
2018-08-30T07:09:14.774Z,1014.43
2018-08-30T07:10:14.719Z,1014.51
2018-08-30T07:11:14.679Z,1014.50
2018-08-30T07:12:14.635Z,1014.52
2018-08-30T07:13:14.597Z,1014.53
2018-08-30T07:14:14.584Z,1014.55
2018-08-30T07:15:14.524Z,1014.60
2018-08-30T07:16:14.498Z,1014.58
2018-08-30T07:17:14.455Z,1014.61
2018-08-30T07:18:14.429Z,1014.62
2018-08-30T07:19:14.410Z,1014.64
2018-08-30T07:20:14.337Z,1014.64
2018-08-30T07:21:14.356Z,1014.60
2018-08-30T07:22:14.270Z,1014.64
2018-08-30T07:23:14.237Z,1014.68
2018-08-30T07:24:14.246Z,1014.65
2018-08-30T07:25:23.767Z,1014.69
2018-08-30T07:26:14.126Z,1014.70
2018-08-30T07:27:14.085Z,1014.69
2018-08-30T07:28:14.050Z,1014.67
2018-08-30T07:29:14.016Z,1014.65
2018-08-30T07:30:13.993Z,1014.62
2018-08-30T07:31:13.935Z,1014.66
2018-08-30T07:32:13.900Z,1014.68
2018-08-30T07:33:13.865Z,1014.70
2018-08-30T07:34:13.867Z,1014.67
2018-08-30T07:35:13.903Z,1014.72
2018-08-30T07:36:13.750Z,1014.69
2018-08-30T07:37:13.716Z,1014.68
2018-08-30T07:38:13.740Z,1014.71
2018-08-30T07:39:13.677Z,1014.75
2018-08-30T07:40:13.611Z,1014.76
2018-08-30T07:41:13.599Z,1014.78
2018-08-30T07:42:13.534Z,1014.76
2018-08-30T07:43:13.493Z,1014.80
2018-08-30T07:44:13.583Z,1014.84
2018-08-30T07:45:13.432Z,1014.88
2018-08-30T07:46:13.414Z,1014.92
2018-08-30T07:47:13.397Z,1014.91
2018-08-30T07:48:13.316Z,1014.92
2018-08-30T07:49:13.282Z,1014.93
2018-08-30T07:50:13.235Z,1015.02
2018-08-30T07:51:13.233Z,1015.06
2018-08-30T07:52:13.177Z,1015.09
2018-08-30T07:53:13.138Z,1015.07
2018-08-30T07:54:13.090Z,1015.02
2018-08-30T07:55:13.052Z,1015.09
2018-08-30T07:56:13.043Z,1015.06
2018-08-30T07:57:12.988Z,1015.07
2018-08-30T07:58:12.956Z,1015.12
2018-08-30T07:59:12.918Z,1015.18
2018-08-30T08:00:12.882Z,1015.15
2018-08-30T08:01:12.865Z,1015.24
2018-08-30T08:02:12.801Z,1015.24
2018-08-30T08:03:22.792Z,1015.25
2018-08-30T08:04:12.736Z,1015.34
2018-08-30T08:05:12.726Z,1015.20
2018-08-30T08:06:12.660Z,1015.20
2018-08-30T08:07:12.672Z,1015.19
2018-08-30T08:08:12.595Z,1015.19
2018-08-30T08:09:12.559Z,1015.25
2018-08-30T08:10:12.552Z,1015.31
2018-08-30T08:11:12.494Z,1015.35
2018-08-30T08:12:12.444Z,1015.29
2018-08-30T08:13:12.410Z,1015.78
2018-08-30T08:14:12.379Z,1015.91
2018-08-30T08:15:12.343Z,1015.88
2018-08-30T08:16:12.333Z,1015.49
2018-08-30T08:17:12.280Z,1015.97
2018-08-30T08:18:12.245Z,1016.00
2018-08-30T08:19:12.282Z,1015.94
2018-08-30T08:20:12.165Z,1015.88
2018-08-30T08:21:12.154Z,1015.98
2018-08-30T08:22:12.109Z,1015.99
2018-08-30T08:23:12.074Z,1015.61
2018-08-30T08:24:12.033Z,1016.00
2018-08-30T08:25:11.999Z,1015.87
2018-08-30T08:26:11.991Z,1015.99
2018-08-30T08:27:11.928Z,1015.53
2018-08-30T08:28:11.906Z,1015.53
2018-08-30T08:29:11.899Z,1016.10
2018-08-30T08:30:11.844Z,1016.13
2018-08-30T08:31:11.818Z,1016.13
2018-08-30T08:32:11.786Z,1015.91
2018-08-30T08:33:11.733Z,1016.13
2018-08-30T08:34:11.697Z,1015.75
2018-08-30T08:35:11.668Z,1015.77
2018-08-30T08:36:11.642Z,1016.10
2018-08-30T08:37:11.632Z,1016.17
2018-08-30T08:38:11.567Z,1016.04
2018-08-30T08:39:11.541Z,1015.58
2018-08-30T08:40:11.512Z,1015.60
2018-08-30T08:41:21.852Z,1015.91
2018-08-30T08:42:11.469Z,1015.61
2018-08-30T08:43:11.410Z,1015.59
2018-08-30T08:44:11.377Z,1016.03
2018-08-30T08:45:11.348Z,1016.11
2018-08-30T08:46:11.319Z,1016.14
2018-08-30T08:47:11.286Z,1016.24
2018-08-30T08:48:11.281Z,1016.23
2018-08-30T08:49:11.453Z,1016.17
2018-08-30T08:50:11.182Z,1016.31
2018-08-30T08:51:11.176Z,1016.29
2018-08-30T08:52:11.129Z,1016.40
2018-08-30T08:53:11.117Z,1015.83
2018-08-30T08:54:11.055Z,1015.75
2018-08-30T08:55:11.022Z,1015.75
2018-08-30T08:56:10.992Z,1015.74
2018-08-30T08:57:10.967Z,1015.70
2018-08-30T08:58:10.956Z,1015.70
2018-08-30T08:59:10.993Z,1015.75
2018-08-30T09:00:10.872Z,1015.79
2018-08-30T09:01:20.982Z,1015.63
2018-08-30T09:02:10.804Z,1015.66
2018-08-30T09:03:10.797Z,1015.67
2018-08-30T09:04:10.747Z,1015.68
2018-08-30T09:05:10.716Z,1015.68
2018-08-30T09:06:10.675Z,1015.76
2018-08-30T09:07:10.673Z,1015.74
2018-08-30T09:08:10.617Z,1015.77
2018-08-30T09:09:10.605Z,1015.81
2018-08-30T09:10:10.550Z,1016.34
2018-08-30T09:11:10.516Z,1016.01
2018-08-30T09:12:10.476Z,1016.35
2018-08-30T09:13:10.444Z,1016.36
2018-08-30T09:14:10.436Z,1016.41
2018-08-30T09:15:10.376Z,1016.47
2018-08-30T09:16:10.354Z,1016.48
2018-08-30T09:17:10.322Z,1016.51
2018-08-30T09:18:10.284Z,1016.51
2018-08-30T09:19:10.281Z,1016.17
2018-08-30T09:20:10.214Z,1015.83
2018-08-30T09:21:10.188Z,1016.21
2018-08-30T09:22:10.159Z,1015.77
2018-08-30T09:23:10.167Z,1015.80
2018-08-30T09:24:10.083Z,1015.81
2018-08-30T09:25:10.076Z,1016.35
2018-08-30T09:26:10.019Z,1015.76
2018-08-30T09:27:10.022Z,1015.72
2018-08-30T09:28:09.964Z,1015.62
2018-08-30T09:29:09.938Z,1015.68
2018-08-30T09:30:09.927Z,1015.67
2018-08-30T09:31:09.869Z,1015.66
2018-08-30T09:32:09.826Z,1015.66
2018-08-30T09:33:09.794Z,1015.70
2018-08-30T09:34:09.764Z,1015.73
2018-08-30T09:35:09.753Z,1015.75
2018-08-30T09:36:09.708Z,1016.13
2018-08-30T09:37:09.672Z,1016.34
2018-08-30T09:38:09.635Z,1016.32
2018-08-30T09:39:09.601Z,1016.38
2018-08-30T09:40:09.609Z,1016.43
2018-08-30T09:41:09.542Z,1015.78
2018-08-30T09:42:09.508Z,1015.74
2018-08-30T09:43:09.476Z,1015.73
2018-08-30T09:44:09.438Z,1015.78
2018-08-30T09:45:09.404Z,1015.78
2018-08-30T09:46:09.395Z,1015.80
2018-08-30T09:47:09.339Z,1015.76
2018-08-30T09:48:09.312Z,1015.74
2018-08-30T09:49:09.280Z,1016.39
2018-08-30T09:50:09.272Z,1016.39
2018-08-30T09:51:09.217Z,1016.40
2018-08-30T09:52:09.178Z,1015.87
2018-08-30T09:53:09.147Z,1015.81
2018-08-30T09:54:09.118Z,1015.74
2018-08-30T09:55:09.108Z,1015.81
2018-08-30T09:56:09.047Z,1015.83
2018-08-30T09:57:09.172Z,1016.37
2018-08-30T09:58:08.980Z,1016.21
2018-08-30T09:59:08.946Z,1016.39
2018-08-30T10:00:08.942Z,1016.39
2018-08-30T10:01:18.953Z,1016.48
2018-08-30T10:02:08.849Z,1016.48
2018-08-30T10:03:08.817Z,1016.48
2018-08-30T10:04:08.785Z,1016.48
2018-08-30T10:05:08.773Z,1016.50
2018-08-30T10:06:08.727Z,1016.08
2018-08-30T10:07:08.702Z,1015.94
2018-08-30T10:08:08.660Z,1016.40
2018-08-30T10:09:08.623Z,1015.86
2018-08-30T10:10:08.628Z,1015.84
2018-08-30T10:11:08.571Z,1015.83
2018-08-30T10:12:08.540Z,1015.84
2018-08-30T10:13:08.530Z,1015.85
2018-08-30T10:14:08.471Z,1015.81
2018-08-30T10:15:08.464Z,1015.84
2018-08-30T10:16:08.411Z,1015.80
2018-08-30T10:17:08.381Z,1015.82
2018-08-30T10:18:08.349Z,1015.82
2018-08-30T10:19:08.324Z,1015.80
2018-08-30T10:20:15.839Z,1015.80
2018-08-30T10:21:08.255Z,1015.84
2018-08-30T10:22:08.229Z,1015.88
2018-08-30T10:23:08.200Z,1015.88
2018-08-30T10:24:08.180Z,1015.91
2018-08-30T10:25:08.123Z,1015.92
2018-08-30T10:26:08.090Z,1015.92
2018-08-30T10:27:08.060Z,1015.88
2018-08-30T10:28:08.034Z,1015.92
2018-08-30T10:29:08.020Z,1015.93
2018-08-30T10:30:07.965Z,1015.93
2018-08-30T10:31:07.934Z,1015.92
2018-08-30T10:32:07.895Z,1015.87
2018-08-30T10:33:07.861Z,1015.93
2018-08-30T10:34:07.852Z,1015.96
2018-08-30T10:35:07.796Z,1015.97
2018-08-30T10:36:07.768Z,1015.96
2018-08-30T10:37:07.868Z,1015.97
2018-08-30T10:38:07.695Z,1016.31
2018-08-30T10:39:07.685Z,1016.29
2018-08-30T10:40:07.634Z,1016.37
2018-08-30T10:41:07.607Z,1016.46
2018-08-30T10:42:07.570Z,1016.28
2018-08-30T10:43:07.534Z,1016.33
2018-08-30T10:44:07.532Z,1016.30
2018-08-30T10:45:07.463Z,1016.22
2018-08-30T10:46:07.429Z,1016.35
2018-08-30T10:47:07.401Z,1016.13
2018-08-30T10:48:07.377Z,1016.12
2018-08-30T10:49:07.366Z,1016.47
2018-08-30T10:50:07.314Z,1016.05
2018-08-30T10:51:07.277Z,1016.52
2018-08-30T10:52:07.238Z,1016.51
2018-08-30T10:53:07.214Z,1016.48
2018-08-30T10:54:07.204Z,1016.50
2018-08-30T10:55:07.149Z,1016.26
2018-08-30T10:56:07.118Z,1016.60
2018-08-30T10:57:07.087Z,1016.55
2018-08-30T10:58:15.571Z,1016.11
2018-08-30T10:59:07.046Z,1016.00
2018-08-30T11:00:06.997Z,1015.95
2018-08-30T11:01:06.965Z,1015.87
2018-08-30T11:02:06.943Z,1015.94
2018-08-30T11:03:06.897Z,1015.95
2018-08-30T11:04:06.904Z,1016.09
2018-08-30T11:05:06.837Z,1016.02
2018-08-30T11:06:06.813Z,1015.97
2018-08-30T11:07:06.790Z,1016.10
2018-08-30T11:08:06.777Z,1016.20
2018-08-30T11:09:06.717Z,1016.22
2018-08-30T11:10:06.686Z,1016.03
2018-08-30T11:11:06.659Z,1016.05
2018-08-30T11:12:06.624Z,1016.00
2018-08-30T11:13:06.840Z,1016.00
2018-08-30T11:14:06.553Z,1015.99
2018-08-30T11:15:06.522Z,1015.95
2018-08-30T11:16:06.489Z,1015.99
2018-08-30T11:17:06.459Z,1016.07
2018-08-30T11:18:06.455Z,1016.19
2018-08-30T11:19:06.407Z,1016.43
2018-08-30T11:20:06.371Z,1016.41
2018-08-30T11:21:06.336Z,1016.41
2018-08-30T11:22:06.296Z,1016.40
2018-08-30T11:23:06.293Z,1016.40
2018-08-30T11:24:06.239Z,1016.40
2018-08-30T11:25:06.206Z,1016.38
2018-08-30T11:26:06.168Z,1016.38
2018-08-30T11:27:06.136Z,1016.40
2018-08-30T11:28:06.128Z,1015.98
2018-08-30T11:29:06.073Z,1015.96
2018-08-30T11:30:06.052Z,1016.00
2018-08-30T11:31:06.022Z,1015.99
2018-08-30T11:32:05.991Z,1016.04
2018-08-30T11:33:05.984Z,1016.44
2018-08-30T11:34:05.921Z,1016.33
2018-08-30T11:35:05.889Z,1016.02
2018-08-30T11:36:17.099Z,1015.95
2018-08-30T11:37:05.837Z,1016.38
2018-08-30T11:38:05.815Z,1016.07
2018-08-30T11:39:05.764Z,1016.37
2018-08-30T11:40:05.740Z,1016.38
2018-08-30T11:41:05.766Z,1016.38
2018-08-30T11:42:05.678Z,1016.35
2018-08-30T11:43:05.670Z,1016.41
2018-08-30T11:44:05.609Z,1016.40
2018-08-30T11:45:05.578Z,1016.38
2018-08-30T11:46:05.549Z,1016.26
2018-08-30T11:47:05.521Z,1015.97
2018-08-30T11:48:05.516Z,1015.93
2018-08-30T11:49:05.465Z,1015.94
2018-08-30T11:50:05.436Z,1016.00
2018-08-30T11:51:05.457Z,1015.97
2018-08-30T11:52:05.397Z,1016.00
2018-08-30T11:53:05.337Z,1016.04
2018-08-30T11:54:05.360Z,1016.10
2018-08-30T11:55:05.280Z,1016.06
2018-08-30T11:56:15.638Z,1016.09
2018-08-30T11:57:05.235Z,1016.13
2018-08-30T11:58:05.186Z,1016.44
2018-08-30T11:59:05.157Z,1016.20
2018-08-30T12:00:05.127Z,1016.45
2018-08-30T12:01:05.111Z,1016.32
2018-08-30T12:02:05.074Z,1016.35
2018-08-30T12:03:05.031Z,1016.25
2018-08-30T12:04:04.988Z,1016.30
2018-08-30T12:05:04.960Z,1016.43